Time;durP1;ratioP1;P1;durP2;ratioP2;P2;SDS_P1;SDS_P2;PMS_P1;PMS_P2;Temp;Humidity;BMP_temperature;BMP_pressure;BME280_temperature;BME280_humidity;BME280_pressure;Samples;Min_cycle;Max_cycle;Signal;HPM_P1;HPM_P2
2023/04/10 00:00:08;;;;;;;10.33;7.17;;;7.50;92.50;;;;;;6091189;23;20436;-71
2023/04/10 00:02:36;;;;;;;10.17;7.60;;;7.40;92.70;;;;;;6056951;23;20416;-71
2023/04/10 00:05:02;;;;;;;8.70;6.80;;;7.40;92.80;;;;;;6090685;23;20374;-71
2023/04/10 00:07:28;;;;;;;11.07;8.80;;;7.50;92.90;;;;;;6057033;23;20381;-72
2023/04/10 00:09:53;;;;;;;9.43;7.80;;;7.50;93.10;;;;;;6036981;23;20377;-71
2023/04/10 00:12:19;;;;;;;11.23;9.03;;;7.50;93.00;;;;;;6034794;23;20402;-71
2023/04/10 00:14:46;;;;;;;11.10;9.20;;;7.60;93.10;;;;;;6080521;23;20179;-71
2023/04/10 00:17:12;;;;;;;9.87;7.70;;;7.60;93.10;;;;;;6093357;23;20631;-70
2023/04/10 00:19:38;;;;;;;9.00;7.10;;;7.60;93.50;;;;;;6057999;23;20382;-73
2023/04/10 00:22:05;;;;;;;9.80;6.93;;;7.50;93.40;;;;;;6082227;23;20235;-72
2023/04/10 00:24:31;;;;;;;9.00;6.70;;;7.50;93.60;;;;;;6059557;23;20156;-70
2023/04/10 00:26:56;;;;;;;9.53;6.70;;;7.50;94.00;;;;;;6081889;23;20370;-70
2023/04/10 00:29:23;;;;;;;9.30;7.73;;;7.40;94.30;;;;;;6083947;23;20147;-71
2023/04/10 00:31:49;;;;;;;11.70;9.03;;;7.40;94.40;;;;;;6094271;23;20468;-71
2023/04/10 00:34:15;;;;;;;10.33;7.53;;;7.40;94.60;;;;;;6092910;23;20846;-72
2023/04/10 00:36:41;;;;;;;11.40;7.40;;;7.40;94.30;;;;;;6066203;23;20137;-71
2023/04/10 00:39:10;;;;;;;10.00;7.70;;;7.40;94.50;;;;;;6089744;23;20370;-71
2023/04/10 00:41:35;;;;;;;8.93;7.23;;;7.40;94.40;;;;;;6080778;23;20444;-71
2023/04/10 00:44:01;;;;;;;9.33;7.60;;;7.40;95.00;;;;;;6056308;23;20381;-71
2023/04/10 00:46:28;;;;;;;11.73;9.47;;;7.40;94.70;;;;;;6058385;23;20137;-72
2023/04/10 00:48:55;;;;;;;11.23;8.27;;;7.40;95.00;;;;;;6057119;23;20370;-71
2023/04/10 00:51:21;;;;;;;9.43;7.90;;;7.40;95.00;;;;;;6056070;23;20433;-71
2023/04/10 00:53:51;;;;;;;11.50;9.27;;;7.30;95.20;;;;;;6079069;23;20466;-71
2023/04/10 00:56:22;;;;;;;10.20;8.30;;;7.30;95.50;;;;;;6055134;23;20597;-72
2023/04/10 00:58:48;;;;;;;9.80;8.47;;;7.30;95.70;;;;;;6053994;23;20389;-73
2023/04/10 01:01:13;;;;;;;9.13;7.70;;;7.30;95.80;;;;;;6089199;23;20409;-71
2023/04/10 01:03:41;;;;;;;9.30;7.17;;;7.30;95.80;;;;;;6081055;23;20138;-72
2023/04/10 01:06:52;;;;;;;11.07;7.63;;;7.20;96.00;;;;;;6056133;23;20146;-71
2023/04/10 01:09:43;;;;;;;10.17;7.87;;;7.20;96.30;;;;;;6077984;23;20377;-73
2023/04/10 01:12:42;;;;;;;12.50;10.10;;;7.20;96.90;;;;;;6053846;23;20893;-71
2023/04/10 01:15:16;;;;;;;13.17;9.27;;;7.20;97.00;;;;;;6083903;23;20397;-71
2023/04/10 01:17:50;;;;;;;8.00;6.67;;;7.20;97.20;;;;;;6095352;23;20369;-71
2023/04/10 01:20:21;;;;;;;10.27;7.50;;;7.20;97.10;;;;;;6063785;23;20413;-72
2023/04/10 01:23:14;;;;;;;10.20;8.20;;;7.20;97.10;;;;;;6082872;23;20727;-72
2023/04/10 01:25:52;;;;;;;12.47;8.80;;;7.20;97.40;;;;;;6086704;23;20374;-71
2023/04/10 01:28:18;;;;;;;11.70;8.97;;;7.10;97.30;;;;;;6086771;23;20790;-71
2023/04/10 01:30:47;;;;;;;8.70;7.80;;;7.20;97.50;;;;;;6032529;23;20389;-72
2023/04/10 01:33:17;;;;;;;10.63;8.13;;;7.10;97.90;;;;;;6092236;23;20408;-72
2023/04/10 01:35:48;;;;;;;9.43;8.20;;;7.10;97.40;;;;;;6090960;23;20383;-70
2023/04/10 01:38:17;;;;;;;12.23;9.30;;;7.10;97.20;;;;;;6090234;23;20521;-71
2023/04/10 01:40:48;;;;;;;11.20;9.40;;;7.10;97.30;;;;;;6077888;23;20435;-71
2023/04/10 01:43:18;;;;;;;8.90;8.00;;;7.20;97.40;;;;;;6079832;23;20405;-69
2023/04/10 01:45:51;;;;;;;9.30;8.30;;;7.10;97.20;;;;;;6034946;23;20389;-73
2023/04/10 01:48:18;;;;;;;9.77;8.37;;;7.10;97.30;;;;;;6067293;23;20413;-72
2023/04/10 01:50:45;;;;;;;13.03;9.37;;;7.10;97.30;;;;;;6055783;23;20452;-71
2023/04/10 01:53:12;;;;;;;9.60;8.20;;;7.10;97.20;;;;;;6080654;23;20409;-71
2023/04/10 01:55:38;;;;;;;10.50;8.17;;;7.10;97.30;;;;;;6057934;23;20382;-71
2023/04/10 01:58:06;;;;;;;9.80;8.00;;;7.10;97.40;;;;;;6081716;23;20390;-70
2023/04/10 02:00:40;;;;;;;8.50;7.60;;;7.00;97.50;;;;;;6059343;23;20432;-72
2023/04/10 02:03:07;;;;;;;9.53;8.50;;;7.00;97.40;;;;;;6021421;23;20437;-71
2023/04/10 02:05:51;;;;;;;9.67;8.40;;;7.10;97.20;;;;;;6050365;23;20383;-71
2023/04/10 02:08:26;;;;;;;11.23;9.40;;;7.10;97.20;;;;;;6051001;23;20701;-72
2023/04/10 02:11:16;;;;;;;10.83;8.93;;;7.00;97.20;;;;;;6052805;23;20473;-70
2023/04/10 02:13:42;;;;;;;10.87;8.60;;;7.00;97.30;;;;;;6050858;23;20401;-70
2023/04/10 02:16:09;;;;;;;10.50;8.43;;;7.00;97.00;;;;;;6016768;23;20394;-71
2023/04/10 02:18:37;;;;;;;13.00;9.80;;;7.00;97.20;;;;;;6016621;23;20445;-70
2023/04/10 02:21:03;;;;;;;9.47;8.13;;;7.00;97.10;;;;;;6015138;23;20538;-70
2023/04/10 02:23:29;;;;;;;9.53;8.43;;;7.00;97.20;;;;;;6049812;23;20411;-70
2023/04/10 02:25:57;;;;;;;9.57;7.77;;;7.00;97.30;;;;;;6016346;23;20205;-72
2023/04/10 02:28:23;;;;;;;14.50;8.23;;;6.90;97.30;;;;;;6050192;23;20450;-70
2023/04/10 02:30:48;;;;;;;9.90;8.43;;;6.90;97.30;;;;;;6061976;23;20659;-70
2023/04/10 02:33:14;;;;;;;12.37;9.37;;;6.90;97.60;;;;;;6075073;23;20195;-71
2023/04/10 02:35:39;;;;;;;12.33;8.53;;;6.90;97.80;;;;;;6091597;23;20137;-70
2023/04/10 02:38:06;;;;;;;10.00;8.73;;;6.90;97.70;;;;;;6054442;23;20183;-72
2023/04/10 02:40:35;;;;;;;10.57;8.33;;;6.80;97.90;;;;;;6052611;23;20596;-70
2023/04/10 02:43:21;;;;;;;10.70;8.53;;;6.80;98.10;;;;;;6100099;23;20483;-71
2023/04/10 02:45:47;;;;;;;9.33;7.20;;;6.80;98.30;;;;;;6075265;23;20388;-69
2023/04/10 02:48:19;;;;;;;13.17;8.77;;;6.70;98.60;;;;;;6052561;23;20156;-71
2023/04/10 02:50:58;;;;;;;9.90;8.20;;;6.70;99.20;;;;;;6079139;23;20420;-70
2023/04/10 02:53:26;;;;;;;12.93;9.30;;;6.60;99.20;;;;;;6057062;23;20399;-70
2023/04/10 02:55:55;;;;;;;10.13;8.17;;;6.60;99.80;;;;;;6061244;23;20515;-70
2023/04/10 02:58:21;;;;;;;10.90;9.30;;;6.60;99.60;;;;;;6117617;23;20376;-71
2023/04/10 03:00:48;;;;;;;11.50;8.90;;;6.60;99.90;;;;;;6080468;23;20240;-69
2023/04/10 03:03:18;;;;;;;12.00;9.20;;;6.60;99.90;;;;;;6056594;23;20436;-71
2023/04/10 03:05:49;;;;;;;10.37;8.60;;;6.60;99.90;;;;;;6080995;23;20384;-70
2023/04/10 03:08:16;;;;;;;9.33;8.20;;;6.50;99.90;;;;;;6057014;23;20411;-71
2023/04/10 03:10:47;;;;;;;13.70;10.00;;;6.50;99.90;;;;;;6114575;23;20447;-69
2023/04/10 03:13:14;;;;;;;10.20;8.13;;;6.50;99.90;;;;;;6108930;23;20184;-73
2023/04/10 03:15:40;;;;;;;11.80;8.63;;;6.50;99.90;;;;;;6075263;23;20642;-73
2023/04/10 03:18:05;;;;;;;11.47;8.37;;;6.50;99.90;;;;;;6109905;23;20405;-71
2023/04/10 03:20:32;;;;;;;11.20;8.47;;;6.50;99.90;;;;;;6097210;23;20413;-71
2023/04/10 03:22:58;;;;;;;11.80;9.40;;;6.50;99.90;;;;;;6099206;23;20436;-70
2023/04/10 03:25:26;;;;;;;11.40;8.70;;;6.50;99.90;;;;;;6075056;23;20389;-70
2023/04/10 03:27:52;;;;;;;10.67;8.70;;;6.40;99.90;;;;;;6108678;23;20371;-70
2023/04/10 03:30:18;;;;;;;10.97;8.27;;;6.50;99.90;;;;;;6076932;23;20149;-70
2023/04/10 03:32:44;;;;;;;10.17;7.97;;;6.50;99.90;;;;;;6054435;23;20415;-70
2023/04/10 03:35:10;;;;;;;11.30;8.70;;;6.50;99.90;;;;;;6099784;23;20624;-70
2023/04/10 03:37:36;;;;;;;11.27;8.70;;;6.40;99.90;;;;;;6110381;23;20534;-70
2023/04/10 03:40:06;;;;;;;11.20;8.70;;;6.40;99.90;;;;;;6074174;23;20420;-69
2023/04/10 03:42:32;;;;;;;12.23;9.80;;;6.40;99.90;;;;;;6098636;23;20196;-70
2023/04/10 03:44:58;;;;;;;10.80;7.90;;;6.40;99.90;;;;;;6074866;23;20385;-70
2023/04/10 03:47:23;;;;;;;9.47;7.40;;;6.40;99.90;;;;;;6075162;23;20175;-71
2023/04/10 03:49:51;;;;;;;14.93;9.90;;;6.50;99.90;;;;;;6099037;23;20140;-71
2023/04/10 03:52:17;;;;;;;11.50;9.37;;;6.40;99.90;;;;;;6098418;23;20502;-71
2023/04/10 03:54:42;;;;;;;12.73;9.30;;;6.40;99.90;;;;;;6109974;23;20140;-71
2023/04/10 03:57:18;;;;;;;11.80;9.80;;;6.30;99.90;;;;;;6051288;23;20616;-69
2023/04/10 03:59:44;;;;;;;11.70;9.33;;;6.30;99.90;;;;;;6074466;23;20376;-70
2023/04/10 04:02:11;;;;;;;11.67;8.63;;;6.20;99.90;;;;;;6077346;23;20412;-69
2023/04/10 04:04:39;;;;;;;10.60;8.80;;;6.20;99.90;;;;;;6112865;23;20412;-74
2023/04/10 04:07:39;;;;;;;13.37;9.53;;;6.20;99.90;;;;;;6103677;23;20520;-70
2023/04/10 04:10:28;;;;;;;10.30;8.13;;;6.10;99.90;;;;;;6059241;23;20412;-70
2023/04/10 04:13:12;;;;;;;12.50;9.97;;;6.10;99.90;;;;;;6102905;23;20853;-70
2023/04/10 04:16:02;;;;;;;11.17;8.00;;;6.10;99.90;;;;;;6085629;23;20384;-69
2023/04/10 04:18:44;;;;;;;10.90;8.77;;;6.10;99.90;;;;;;6078225;23;20387;-69
2023/04/10 04:21:27;;;;;;;12.50;9.23;;;6.00;99.90;;;;;;6078028;23;20496;-70
2023/04/10 04:24:00;;;;;;;9.07;7.50;;;6.00;99.90;;;;;;6102428;23;20623;-70
2023/04/10 04:26:52;;;;;;;11.87;8.17;;;5.90;99.90;;;;;;6100449;23;20463;-70
2023/04/10 04:29:38;;;;;;;8.73;7.27;;;5.90;99.90;;;;;;6113236;23;20861;-70
2023/04/10 04:32:13;;;;;;;9.73;7.47;;;5.80;99.90;;;;;;6057817;23;20400;-72
2023/04/10 04:34:54;;;;;;;10.53;8.20;;;5.70;99.90;;;;;;6090826;23;20365;-71
2023/04/10 04:37:35;;;;;;;9.97;8.20;;;5.70;99.90;;;;;;6078197;23;20835;-70
2023/04/10 04:40:24;;;;;;;13.67;9.50;;;5.70;99.90;;;;;;6075128;23;20900;-70
2023/04/10 04:43:02;;;;;;;10.70;8.07;;;5.80;99.90;;;;;;6101796;23;20837;-70
2023/04/10 04:45:56;;;;;;;10.13;7.60;;;5.80;99.90;;;;;;6080645;23;20829;-70
2023/04/10 04:48:50;;;;;;;12.43;9.70;;;5.90;99.90;;;;;;6080402;23;20809;-70
2023/04/10 04:51:34;;;;;;;12.17;9.10;;;5.90;99.90;;;;;;6110991;23;20852;-71
2023/04/10 04:54:03;;;;;;;11.50;8.33;;;6.00;99.90;;;;;;6079545;23;20431;-70
2023/04/10 04:56:47;;;;;;;12.03;8.40;;;6.00;99.90;;;;;;6079011;23;20483;-71
2023/04/10 04:59:18;;;;;;;12.57;9.10;;;6.00;99.90;;;;;;6113591;23;20372;-71
2023/04/10 05:02:04;;;;;;;10.70;8.10;;;6.00;99.90;;;;;;6103012;23;20439;-69
2023/04/10 05:04:54;;;;;;;10.80;7.90;;;6.00;99.90;;;;;;6105025;23;20411;-68
2023/04/10 05:07:40;;;;;;;11.60;8.80;;;6.00;99.90;;;;;;6054974;23;20376;-70
2023/04/10 05:10:29;;;;;;;12.23;9.33;;;6.00;99.90;;;;;;6072549;23;20703;-70
2023/04/10 05:13:10;;;;;;;12.70;9.50;;;6.00;99.90;;;;;;6058146;23;20408;-71
2023/04/10 05:15:44;;;;;;;9.10;6.87;;;6.10;99.90;;;;;;6081117;23;20390;-71
2023/04/10 05:18:22;;;;;;;9.00;7.80;;;6.10;99.90;;;;;;6080671;23;20380;-69
2023/04/10 05:20:59;;;;;;;7.90;7.00;;;6.20;99.90;;;;;;6088906;23;20750;-71
2023/04/10 05:23:39;;;;;;;10.80;8.53;;;6.30;99.90;;;;;;6041601;23;20567;-70
2023/04/10 05:26:21;;;;;;;11.00;8.67;;;6.30;99.90;;;;;;6113809;23;20364;-72
2023/04/10 05:29:13;;;;;;;13.67;9.10;;;6.40;99.90;;;;;;6102293;23;20840;-71
2023/04/10 05:31:56;;;;;;;10.10;7.67;;;6.50;99.90;;;;;;6114995;23;20425;-70
2023/04/10 05:34:57;;;;;;;10.30;8.13;;;6.60;99.90;;;;;;6103461;23;20427;-70
2023/04/10 05:37:43;;;;;;;10.20;7.80;;;6.70;99.70;;;;;;6081741;23;20451;-70
2023/04/10 05:40:44;;;;;;;11.13;8.27;;;6.80;99.20;;;;;;6095679;23;20428;-70
2023/04/10 05:43:35;;;;;;;10.17;8.10;;;6.90;98.60;;;;;;6115824;23;20471;-70
2023/04/10 05:46:24;;;;;;;9.97;7.87;;;7.10;97.80;;;;;;6074385;23;20404;-69
2023/04/10 05:49:21;;;;;;;10.03;7.33;;;7.10;97.40;;;;;;6081562;23;20377;-71
2023/04/10 05:51:59;;;;;;;10.20;7.17;;;7.20;97.10;;;;;;6080805;23;20424;-70
2023/04/10 05:54:50;;;;;;;11.10;7.37;;;7.30;96.90;;;;;;6061659;23;20389;-70
2023/04/10 05:57:35;;;;;;;11.23;9.27;;;7.40;96.40;;;;;;6117486;23;20391;-68
2023/04/10 06:00:06;;;;;;;10.97;8.50;;;7.50;95.20;;;;;;6115688;23;20488;-69
2023/04/10 06:03:01;;;;;;;8.83;7.60;;;7.60;93.90;;;;;;6104419;23;20508;-69
2023/04/10 06:05:27;;;;;;;10.00;7.67;;;7.70;93.20;;;;;;6080863;23;20377;-70
2023/04/10 06:07:58;;;;;;;9.27;7.90;;;7.70;93.00;;;;;;6080510;23;20377;-71
2023/04/10 06:10:27;;;;;;;11.77;9.80;;;7.80;93.20;;;;;;6079986;23;20463;-70
2023/04/10 06:12:52;;;;;;;8.80;6.80;;;7.90;92.50;;;;;;6090522;23;20168;-70
2023/04/10 06:15:20;;;;;;;9.23;7.80;;;7.90;92.50;;;;;;6081157;23;20423;-70
2023/04/10 06:17:46;;;;;;;9.60;8.07;;;8.10;91.70;;;;;;6056504;23;20381;-70
2023/04/10 06:20:11;;;;;;;12.13;9.00;;;8.10;91.20;;;;;;6091041;23;20504;-71
2023/04/10 06:22:39;;;;;;;9.33;7.60;;;8.30;90.00;;;;;;6107851;23;20192;-70
2023/04/10 06:25:05;;;;;;;11.33;9.13;;;8.40;87.60;;;;;;6115891;23;20144;-72
2023/04/10 06:27:34;;;;;;;11.13;9.03;;;8.50;84.40;;;;;;6083612;23;20443;-72
2023/04/10 06:30:00;;;;;;;9.23;7.83;;;8.60;84.60;;;;;;6084899;23;20444;-69
2023/04/10 06:32:26;;;;;;;11.57;7.20;;;8.70;83.40;;;;;;6087864;23;20483;-72
2023/04/10 06:34:51;;;;;;;11.03;9.10;;;8.80;81.40;;;;;;6066776;23;20149;-72
2023/04/10 06:37:17;;;;;;;10.47;8.20;;;8.90;76.90;;;;;;6068295;23;20204;-70
2023/04/10 06:39:43;;;;;;;10.70;7.40;;;9.00;76.90;;;;;;6091762;23;20204;-72
2023/04/10 06:42:08;;;;;;;11.27;7.80;;;9.20;76.80;;;;;;6114201;23;20185;-70
2023/04/10 06:44:54;;;;;;;10.50;7.97;;;9.30;75.10;;;;;;6069707;23;20420;-71
2023/04/10 06:47:20;;;;;;;10.63;8.40;;;9.40;71.90;;;;;;6089560;23;20392;-70
2023/04/10 06:49:46;;;;;;;9.87;8.87;;;9.40;71.80;;;;;;6123119;23;20133;-71
2023/04/10 06:52:11;;;;;;;10.43;8.37;;;9.60;69.90;;;;;;6116212;23;20172;-71
2023/04/10 06:54:37;;;;;;;11.90;9.53;;;9.70;68.10;;;;;;6089626;23;20203;-70
2023/04/10 06:57:02;;;;;;;10.40;8.57;;;9.80;65.30;;;;;;6066270;23;20149;-71
2023/04/10 06:59:28;;;;;;;11.20;8.80;;;9.80;65.90;;;;;;6126247;23;20144;-73
2023/04/10 07:01:54;;;;;;;10.37;8.23;;;9.90;64.80;;;;;;6125652;23;20176;-71
2023/04/10 07:04:20;;;;;;;10.60;8.63;;;10.10;63.10;;;;;;6124428;23;20137;-70
2023/04/10 07:06:45;;;;;;;10.70;8.50;;;10.20;62.20;;;;;;6060840;23;20155;-70
2023/04/10 07:09:11;;;;;;;10.97;9.00;;;10.20;61.20;;;;;;6115478;23;20204;-71
2023/04/10 07:11:36;;;;;;;9.73;8.27;;;10.30;60.30;;;;;;6115544;23;20226;-71
2023/04/10 07:14:02;;;;;;;10.20;8.47;;;10.20;60.80;;;;;;6080918;23;20228;-70
2023/04/10 07:16:28;;;;;;;11.77;9.00;;;10.50;60.60;;;;;;6115142;23;20213;-71
2023/04/10 07:18:54;;;;;;;8.60;7.20;;;10.50;59.90;;;;;;6114503;23;20160;-70
2023/04/10 07:21:20;;;;;;;12.90;8.80;;;10.70;59.50;;;;;;6112158;23;20630;-71
2023/04/10 07:23:46;;;;;;;9.17;8.17;;;10.80;58.50;;;;;;6054739;23;20515;-70
2023/04/10 07:26:11;;;;;;;9.33;7.83;;;11.00;58.10;;;;;;6113540;23;20372;-71
2023/04/10 07:28:37;;;;;;;9.67;8.10;;;11.20;57.40;;;;;;6079220;23;20439;-73
2023/04/10 07:31:03;;;;;;;11.20;8.23;;;11.30;57.00;;;;;;6117168;23;20137;-70
2023/04/10 07:33:29;;;;;;;10.40;8.80;;;11.40;56.20;;;;;;6079591;23;20148;-72
2023/04/10 07:35:55;;;;;;;10.13;7.90;;;11.60;55.70;;;;;;6118255;23;20145;-72
2023/04/10 07:38:23;;;;;;;9.33;8.27;;;11.60;55.10;;;;;;6115014;23;20211;-73
2023/04/10 07:40:48;;;;;;;11.23;8.90;;;11.70;54.90;;;;;;6034315;23;20880;-73
2023/04/10 07:43:14;;;;;;;10.20;8.23;;;11.80;54.40;;;;;;6057766;23;20409;-71
2023/04/10 07:45:40;;;;;;;9.87;8.00;;;11.80;53.80;;;;;;6116141;23;20156;-72
2023/04/10 07:48:05;;;;;;;9.53;7.57;;;11.70;54.30;;;;;;6081650;23;20165;-71
2023/04/10 07:50:31;;;;;;;12.13;9.43;;;11.80;54.00;;;;;;6108723;23;20405;-71
2023/04/10 07:53:02;;;;;;;7.13;6.03;;;11.70;53.80;;;;;;6112575;23;20172;-72
2023/04/10 07:55:27;;;;;;;8.90;7.53;;;11.80;54.30;;;;;;6039976;23;20180;-71
2023/04/10 07:57:53;;;;;;;12.10;8.10;;;11.90;53.90;;;;;;6117897;23;20370;-70
2023/04/10 08:00:19;;;;;;;7.83;6.57;;;12.00;53.50;;;;;;6081029;23;20172;-70
2023/04/10 08:02:44;;;;;;;7.57;6.77;;;12.10;53.40;;;;;;6079932;23;20196;-70
2023/04/10 08:05:10;;;;;;;7.53;6.73;;;12.10;52.60;;;;;;6083585;23;20144;-69
2023/04/10 08:07:37;;;;;;;7.13;6.37;;;12.20;52.30;;;;;;6082772;23;20215;-72
2023/04/10 08:10:02;;;;;;;6.97;5.80;;;12.30;51.70;;;;;;6094965;23;20201;-71
2023/04/10 08:12:28;;;;;;;7.70;5.90;;;12.40;51.20;;;;;;6120961;23;20396;-74
2023/04/10 08:14:54;;;;;;;12.83;6.67;;;12.40;51.10;;;;;;6117297;23;20132;-71
2023/04/10 08:17:19;;;;;;;7.57;6.40;;;12.50;51.00;;;;;;6081766;23;20141;-71
2023/04/10 08:19:45;;;;;;;11.43;7.60;;;12.70;50.80;;;;;;6034076;23;20173;-73
2023/04/10 08:22:10;;;;;;;9.03;7.70;;;12.80;50.20;;;;;;6081478;23;20214;-71
2023/04/10 08:24:36;;;;;;;7.40;6.43;;;13.00;50.20;;;;;;6117095;23;20143;-70
2023/04/10 08:27:03;;;;;;;8.13;6.20;;;13.10;49.00;;;;;;6083841;23;20155;-73
2023/04/10 08:29:29;;;;;;;8.07;6.60;;;13.20;48.70;;;;;;6116415;23;20156;-72
2023/04/10 08:31:57;;;;;;;8.37;6.00;;;13.40;48.80;;;;;;6055468;23;20404;-71
2023/04/10 08:34:23;;;;;;;5.77;5.07;;;13.50;48.30;;;;;;6115626;23;20453;-72
2023/04/10 08:36:48;;;;;;;7.07;6.30;;;13.70;48.20;;;;;;6116420;23;20384;-71
2023/04/10 08:39:14;;;;;;;6.90;6.20;;;13.80;47.30;;;;;;6120024;23;20169;-70
2023/04/10 08:41:40;;;;;;;7.00;6.03;;;13.90;46.60;;;;;;6094734;23;20234;-72
2023/04/10 08:44:06;;;;;;;7.13;6.20;;;13.90;46.90;;;;;;6115656;23;20135;-72
2023/04/10 08:46:35;;;;;;;8.03;6.63;;;13.90;46.50;;;;;;6061058;23;20155;-71
2023/04/10 08:49:03;;;;;;;7.07;5.00;;;14.10;46.00;;;;;;6083559;23;20148;-71
2023/04/10 08:52:00;;;;;;;8.13;6.03;;;14.10;46.10;;;;;;6040096;23;20416;-74
2023/04/10 08:54:33;;;;;;;5.43;4.90;;;14.20;45.70;;;;;;6062956;23;20396;-74
2023/04/10 08:57:00;;;;;;;5.33;4.80;;;14.30;45.60;;;;;;6119159;23;20380;-75
2023/04/10 08:59:30;;;;;;;6.63;5.73;;;14.50;45.50;;;;;;6092249;23;20435;-70
2023/04/10 09:01:59;;;;;;;6.67;6.07;;;14.70;45.20;;;;;;6104125;23;20475;-71
2023/04/10 09:04:25;;;;;;;6.30;5.70;;;14.70;44.00;;;;;;6090207;23;20424;-70
2023/04/10 09:06:52;;;;;;;6.03;5.43;;;14.60;44.20;;;;;;6104720;23;20385;-70
2023/04/10 09:09:18;;;;;;;6.60;5.30;;;14.70;44.20;;;;;;6081159;23;20447;-73
2023/04/10 09:11:55;;;;;;;8.13;5.73;;;14.80;44.20;;;;;;6057802;23;20404;-70
2023/04/10 09:14:22;;;;;;;5.67;5.17;;;14.90;43.50;;;;;;6082241;23;20163;-72
2023/04/10 09:16:50;;;;;;;6.30;5.33;;;14.90;43.20;;;;;;6079388;23;20388;-70
2023/04/10 09:19:34;;;;;;;5.97;5.40;;;14.80;43.60;;;;;;6115561;23;20404;-72
2023/04/10 09:21:59;;;;;;;5.90;5.30;;;14.70;43.40;;;;;;6054435;23;20433;-70
2023/04/10 09:24:25;;;;;;;5.40;4.70;;;14.80;43.10;;;;;;6086999;23;20401;-71
2023/04/10 09:26:51;;;;;;;6.00;5.40;;;14.80;42.80;;;;;;6052160;23;20146;-72
2023/04/10 09:29:17;;;;;;;5.80;5.20;;;14.90;43.10;;;;;;6078307;23;20381;-70
2023/04/10 09:31:43;;;;;;;5.27;4.50;;;14.90;42.70;;;;;;6089112;23;20247;-71
2023/04/10 09:34:20;;;;;;;6.27;4.93;;;14.90;42.90;;;;;;6080203;23;20400;-70
2023/04/10 09:36:56;;;;;;;7.93;5.47;;;15.10;43.00;;;;;;6080385;23;20141;-71
2023/04/10 09:39:34;;;;;;;5.87;5.27;;;15.20;42.60;;;;;;6091687;23;20405;-71
2023/04/10 09:41:59;;;;;;;5.50;4.97;;;15.20;42.40;;;;;;6059145;23;20428;-72
2023/04/10 09:44:36;;;;;;;5.93;5.30;;;15.30;42.10;;;;;;6090991;23;20801;-72
2023/04/10 09:47:20;;;;;;;6.53;5.50;;;15.40;42.20;;;;;;6080138;23;20171;-71
2023/04/10 09:50:00;;;;;;;7.03;5.70;;;15.50;42.00;;;;;;6093477;23;20632;-72
2023/04/10 09:52:31;;;;;;;6.60;5.23;;;15.50;42.00;;;;;;6084370;23;20447;-70
2023/04/10 09:55:02;;;;;;;5.83;5.23;;;15.60;42.20;;;;;;6080025;23;20944;-69
2023/04/10 09:57:30;;;;;;;5.70;5.10;;;15.60;42.10;;;;;;6084820;23;20397;-72
2023/04/10 09:59:58;;;;;;;6.70;5.90;;;15.70;42.00;;;;;;6055733;23;20396;-70
2023/04/10 10:02:27;;;;;;;5.53;4.73;;;15.80;42.00;;;;;;6085531;23;20397;-72
2023/04/10 10:04:53;;;;;;;7.23;6.20;;;15.90;41.90;;;;;;6086956;23;20428;-70
2023/04/10 10:07:21;;;;;;;6.20;5.60;;;15.80;41.50;;;;;;6063889;23;20762;-71
2023/04/10 10:09:49;;;;;;;5.70;5.20;;;15.70;41.80;;;;;;6054873;23;20150;-71
2023/04/10 10:12:20;;;;;;;5.27;4.50;;;15.80;41.70;;;;;;6089436;23;20401;-72
2023/04/10 10:15:11;;;;;;;5.10;4.53;;;15.90;42.00;;;;;;6089777;23;20467;-70
2023/04/10 10:17:43;;;;;;;7.57;5.40;;;16.10;41.90;;;;;;6079211;23;20385;-71
2023/04/10 10:20:12;;;;;;;5.33;4.50;;;16.20;41.30;;;;;;6079393;23;20390;-69
2023/04/10 10:22:38;;;;;;;6.23;4.90;;;16.30;40.90;;;;;;6032283;23;20433;-71
2023/04/10 10:25:05;;;;;;;4.97;4.47;;;16.40;40.60;;;;;;6054705;23;20867;-72
2023/04/10 10:27:36;;;;;;;5.30;4.80;;;16.40;40.40;;;;;;6056243;23;20390;-73
2023/04/10 10:30:03;;;;;;;5.83;4.57;;;16.40;41.10;;;;;;6086668;23;20404;-72
2023/04/10 10:32:29;;;;;;;4.47;4.03;;;16.40;40.70;;;;;;6065688;23;20561;-71
2023/04/10 10:34:56;;;;;;;4.70;4.30;;;16.60;40.80;;;;;;6054759;23;20382;-71
2023/04/10 10:37:22;;;;;;;5.50;4.70;;;16.70;40.40;;;;;;6057861;23;20381;-75
2023/04/10 10:40:02;;;;;;;5.57;4.10;;;17.00;39.40;;;;;;6091363;23;20374;-71
2023/04/10 10:42:45;;;;;;;6.30;4.10;;;16.90;39.30;;;;;;6003333;24;20416;-74
2023/04/10 10:45:16;;;;;;;4.87;4.47;;;17.00;39.60;;;;;;5994201;23;20372;-70
2023/04/10 10:47:47;;;;;;;5.57;4.50;;;17.10;39.30;;;;;;5994976;23;20420;-71
2023/04/10 10:50:12;;;;;;;4.70;4.20;;;17.10;39.80;;;;;;6006119;24;20418;-70
2023/04/10 10:52:45;;;;;;;4.77;4.30;;;17.30;39.20;;;;;;5974599;24;20417;-72
2023/04/10 10:55:30;;;;;;;5.90;5.10;;;17.40;39.10;;;;;;5951065;23;20153;-72
2023/04/10 10:58:08;;;;;;;4.80;4.30;;;17.40;38.70;;;;;;6008360;24;20396;-71
2023/04/10 11:00:51;;;;;;;4.83;4.23;;;17.60;38.70;;;;;;6008762;24;20440;-70
2023/04/10 11:03:17;;;;;;;5.03;4.00;;;17.70;38.30;;;;;;6003726;24;20518;-72
2023/04/10 11:05:58;;;;;;;6.00;4.70;;;17.80;38.40;;;;;;6004637;24;20368;-72
2023/04/10 11:08:38;;;;;;;5.10;4.60;;;17.80;38.30;;;;;;6004208;24;20157;-70
2023/04/10 11:11:08;;;;;;;4.70;4.27;;;17.70;38.40;;;;;;5995573;23;20470;-70
2023/04/10 11:13:39;;;;;;;4.47;3.97;;;17.70;38.30;;;;;;6051892;23;20445;-73
2023/04/10 11:16:09;;;;;;;5.50;5.00;;;17.90;38.40;;;;;;6058156;23;20420;-71
2023/04/10 11:18:44;;;;;;;6.00;5.30;;;18.10;38.10;;;;;;6080930;23;20378;-73
2023/04/10 11:21:14;;;;;;;5.40;4.13;;;18.10;38.30;;;;;;6081296;23;20875;-71
2023/04/10 11:23:49;;;;;;;4.83;4.33;;;18.10;38.20;;;;;;6119526;23;20408;-72
2023/04/10 11:26:37;;;;;;;4.83;4.23;;;18.20;38.10;;;;;;6087144;23;20785;-73
2023/04/10 11:29:18;;;;;;;3.67;3.37;;;18.30;37.80;;;;;;6088341;23;20377;-73
2023/04/10 11:32:00;;;;;;;4.80;4.07;;;18.40;37.50;;;;;;6090269;23;20391;-75
2023/04/10 11:34:27;;;;;;;4.60;4.07;;;18.50;37.00;;;;;;5982603;23;20480;-72
2023/04/10 11:36:54;;;;;;;4.90;4.40;;;18.50;37.00;;;;;;6023188;23;20387;-71
2023/04/10 11:39:20;;;;;;;4.83;3.97;;;18.50;36.70;;;;;;5976688;23;20387;-71
2023/04/10 11:41:48;;;;;;;3.93;3.50;;;18.60;37.00;;;;;;5998541;23;20698;-73
2023/04/10 11:44:26;;;;;;;4.83;4.23;;;18.60;36.70;;;;;;6000610;23;20166;-70
2023/04/10 11:46:52;;;;;;;3.60;3.23;;;18.50;36.50;;;;;;6000635;23;20379;-72
2023/04/10 11:49:22;;;;;;;4.57;4.07;;;18.50;36.80;;;;;;6000324;23;20404;-72
2023/04/10 11:51:49;;;;;;;3.93;3.53;;;18.60;36.50;;;;;;5998409;23;20434;-70
2023/04/10 11:54:28;;;;;;;4.10;3.70;;;18.50;36.60;;;;;;6009557;23;20422;-73
2023/04/10 11:57:00;;;;;;;4.90;4.30;;;18.60;36.70;;;;;;5976484;23;20651;-71
2023/04/10 11:59:26;;;;;;;4.30;3.90;;;18.40;36.40;;;;;;5977512;23;20399;-71
2023/04/10 12:02:03;;;;;;;4.90;3.53;;;18.60;36.40;;;;;;5953316;23;20438;-71
2023/04/10 12:04:28;;;;;;;3.73;3.20;;;18.60;36.50;;;;;;6014694;23;20387;-71
2023/04/10 12:06:56;;;;;;;4.10;3.70;;;18.70;35.80;;;;;;6066790;23;20435;-71
2023/04/10 12:09:23;;;;;;;4.10;3.70;;;19.00;35.60;;;;;;6115954;23;20152;-72
2023/04/10 12:12:05;;;;;;;3.63;2.80;;;18.90;35.50;;;;;;6089404;23;20416;-75
2023/04/10 12:14:37;;;;;;;3.57;3.10;;;19.10;35.50;;;;;;6066985;23;20376;-71
2023/04/10 12:17:06;;;;;;;3.63;3.33;;;19.10;35.10;;;;;;6121815;23;20385;-70
2023/04/10 12:19:33;;;;;;;3.67;3.20;;;19.20;34.50;;;;;;6061322;23;20381;-71
2023/04/10 12:22:00;;;;;;;3.17;2.87;;;19.40;34.50;;;;;;6113532;23;20472;-72
2023/04/10 12:24:52;;;;;;;3.53;3.17;;;19.30;34.50;;;;;;6086508;23;20383;-71
2023/04/10 12:27:18;;;;;;;3.30;2.97;;;19.50;34.10;;;;;;6120996;23;20383;-72
2023/04/10 12:29:45;;;;;;;3.77;3.27;;;19.50;33.50;;;;;;6087460;23;20405;-70
2023/04/10 12:32:11;;;;;;;3.33;3.00;;;19.70;33.60;;;;;;6062858;23;20412;-72
2023/04/10 12:34:38;;;;;;;3.07;2.77;;;19.70;33.70;;;;;;6092716;23;20440;-76
2023/04/10 12:37:05;;;;;;;3.03;2.70;;;19.60;33.00;;;;;;6064991;23;20174;-73
2023/04/10 12:39:30;;;;;;;3.90;3.17;;;19.50;32.20;;;;;;6063943;23;20389;-71
2023/04/10 12:42:12;;;;;;;2.83;2.53;;;19.60;32.50;;;;;;6088911;23;20435;-70
2023/04/10 12:44:50;;;;;;;2.80;2.60;;;19.80;32.10;;;;;;6089372;23;20141;-71
2023/04/10 12:47:16;;;;;;;2.90;2.30;;;20.00;31.70;;;;;;6088662;23;20377;-72
2023/04/10 12:49:41;;;;;;;2.47;2.20;;;20.10;31.40;;;;;;6120150;23;20865;-70
2023/04/10 12:52:07;;;;;;;3.13;2.77;;;20.30;31.30;;;;;;6113967;23;20235;-72
2023/04/10 12:54:35;;;;;;;2.33;2.13;;;20.50;30.60;;;;;;6085703;23;20156;-72
2023/04/10 12:57:03;;;;;;;3.87;3.00;;;20.40;30.80;;;;;;6124030;23;20224;-72
2023/04/10 12:59:31;;;;;;;3.23;2.93;;;20.60;30.10;;;;;;6063509;23;20381;-71
2023/04/10 13:01:57;;;;;;;3.20;2.90;;;20.60;30.40;;;;;;6118365;23;20860;-73
2023/04/10 13:04:23;;;;;;;2.60;2.37;;;20.70;30.40;;;;;;6072614;23;20383;-70
2023/04/10 13:06:52;;;;;;;4.17;3.13;;;20.70;30.50;;;;;;6087210;23;20377;-73
2023/04/10 13:09:18;;;;;;;2.90;2.47;;;20.70;30.00;;;;;;6092747;23;20128;-72